Time;durP1;ratioP1;P1;durP2;ratioP2;P2;SDS_P1;SDS_P2;PMS_P1;PMS_P2;Temp;Humidity;BMP_temperature;BMP_pressure;BME280_temperature;BME280_humidity;BME280_pressure;Samples;Min_cycle;Max_cycle;Signal;HPM_P1;HPM_P2
2022/01/20 00:04:11;;;;;;;6.07;4.07;;;-2.20;82.30;;;;;;5049187;28;20230;-74
2022/01/20 00:07:15;;;;;;;3.93;3.57;;;-2.30;82.50;;;;;;5044506;28;20189;-74
2022/01/20 00:28:21;;;;;;;6.33;3.53;;;-2.50;83.80;;;;;;5008475;28;20208;-72
2022/01/20 00:31:06;;;;;;;9.50;3.37;;;-2.60;83.70;;;;;;5008807;28;20267;-74
2022/01/20 00:33:42;;;;;;;6.93;3.40;;;-2.60;83.70;;;;;;5006460;28;21103;-74
2022/01/20 00:38:37;;;;;;;4.57;3.33;;;-2.60;83.70;;;;;;5011737;28;20295;-75
2022/01/20 00:41:04;;;;;;;5.43;2.37;;;-2.60;83.50;;;;;;5011909;28;20196;-74
2022/01/20 00:43:29;;;;;;;4.83;3.77;;;-2.70;83.40;;;;;;5017609;28;20199;-74
2022/01/20 00:45:55;;;;;;;2.27;2.00;;;-2.70;83.30;;;;;;5007867;28;20187;-74
2022/01/20 00:48:22;;;;;;;6.00;3.07;;;-2.70;83.20;;;;;;5006183;28;20200;-74
2022/01/20 00:50:48;;;;;;;3.10;2.90;;;-2.70;83.10;;;;;;5011716;28;20180;-74
2022/01/20 00:53:15;;;;;;;4.70;2.73;;;-2.70;83.10;;;;;;5008125;28;20220;-73
2022/01/20 00:55:41;;;;;;;2.77;2.50;;;-2.70;83.10;;;;;;5074529;28;20218;-74
2022/01/20 00:58:08;;;;;;;10.53;3.37;;;-2.70;83.00;;;;;;5072261;28;20296;-75
2022/01/20 01:00:34;;;;;;;9.77;3.47;;;-2.70;82.90;;;;;;5073330;28;20200;-73
2022/01/20 01:03:00;;;;;;;8.83;2.60;;;-2.70;82.80;;;;;;5069547;28;20190;-75
2022/01/20 01:05:27;;;;;;;3.20;3.03;;;-2.70;82.90;;;;;;5075121;28;20178;-75
2022/01/20 01:07:55;;;;;;;4.97;3.47;;;-2.70;83.00;;;;;;5069277;28;21240;-74
2022/01/20 01:10:23;;;;;;;3.47;3.17;;;-2.70;83.00;;;;;;5068328;28;20182;-74
2022/01/20 01:15:28;;;;;;;9.77;3.73;;;-2.70;83.10;;;;;;5076651;28;20210;-74
2022/01/20 01:23:24;;;;;;;3.33;2.67;;;-2.80;83.20;;;;;;5066661;28;20189;-74
2022/01/20 01:25:50;;;;;;;4.17;2.93;;;-2.70;83.20;;;;;;5063875;28;20194;-74
2022/01/20 01:28:20;;;;;;;4.40;3.60;;;-2.70;83.30;;;;;;5070283;28;20175;-74
2022/01/20 01:31:31;;;;;;;4.83;3.17;;;-2.80;83.10;;;;;;5076257;28;20209;-74
2022/01/20 01:33:39;;;;;;;4.47;3.83;;;-2.80;83.10;;;;;;5064438;28;20723;-74
2022/01/20 01:36:08;;;;;;;5.53;3.23;;;-2.80;83.10;;;;;;5068649;28;20189;-74
2022/01/20 01:38:38;;;;;;;4.93;4.17;;;-2.90;83.30;;;;;;5072425;28;20182;-74
2022/01/20 01:41:09;;;;;;;2.80;2.57;;;-2.90;83.40;;;;;;5068937;28;20291;-75
2022/01/20 01:43:36;;;;;;;2.43;2.23;;;-2.90;83.20;;;;;;5076331;28;20179;-74
2022/01/20 01:46:02;;;;;;;3.57;2.67;;;-2.90;83.20;;;;;;5069483;28;20181;-74
2022/01/20 01:48:28;;;;;;;3.67;2.53;;;-2.90;83.20;;;;;;5071199;28;20193;-74
2022/01/20 01:50:55;;;;;;;1.43;1.43;;;-2.90;83.20;;;;;;5069269;28;20195;-74
2022/01/20 01:53:22;;;;;;;6.20;3.10;;;-2.90;83.20;;;;;;5067637;28;20185;-74
2022/01/20 01:55:47;;;;;;;4.80;2.13;;;-2.90;83.30;;;;;;5072946;28;20317;-74
2022/01/20 01:58:13;;;;;;;13.23;3.03;;;-3.00;83.40;;;;;;5068590;28;20352;-74
2022/01/20 02:00:41;;;;;;;5.10;2.47;;;-3.00;83.50;;;;;;5061352;28;20187;-74
2022/01/20 02:03:07;;;;;;;4.30;3.13;;;-3.00;83.60;;;;;;5073920;28;20276;-73
2022/01/20 02:05:36;;;;;;;6.57;3.00;;;-3.00;83.60;;;;;;5066417;28;20269;-74
2022/01/20 02:18:50;;;;;;;1.73;1.57;;;-3.00;83.50;;;;;;5072140;28;20190;-74
2022/01/20 02:21:16;;;;;;;4.13;3.73;;;-3.00;83.50;;;;;;5068548;28;20221;-74
2022/01/20 02:23:45;;;;;;;5.73;2.73;;;-3.00;83.50;;;;;;5065269;28;20182;-74
2022/01/20 02:26:11;;;;;;;5.30;3.17;;;-3.00;83.60;;;;;;5067380;28;20194;-74
2022/01/20 02:28:36;;;;;;;2.43;2.23;;;-3.00;83.60;;;;;;5072605;28;20648;-74
2022/01/20 02:31:03;;;;;;;2.43;2.33;;;-3.00;83.60;;;;;;5066136;28;20182;-74
2022/01/20 02:33:30;;;;;;;6.80;1.97;;;-3.10;83.90;;;;;;5064765;28;20210;-73
2022/01/20 02:36:07;;;;;;;2.77;2.67;;;-3.10;83.80;;;;;;5067573;28;20207;-75
2022/01/20 02:38:47;;;;;;;2.83;2.70;;;-3.10;83.80;;;;;;5069381;28;20210;-73
2022/01/20 02:46:42;;;;;;;3.70;2.37;;;-3.20;83.80;;;;;;5067304;28;20680;-73
2022/01/20 02:49:13;;;;;;;9.47;3.17;;;-3.20;83.80;;;;;;5063392;28;20296;-74
2022/01/20 02:51:46;;;;;;;3.17;2.10;;;-3.20;83.80;;;;;;5062430;28;20178;-73
2022/01/20 02:54:12;;;;;;;1.90;1.80;;;-3.20;83.90;;;;;;5070706;28;20604;-74
2022/01/20 02:56:38;;;;;;;2.70;1.80;;;-3.20;83.90;;;;;;5063908;28;20198;-73
2022/01/20 02:59:03;;;;;;;6.93;2.90;;;-3.20;84.00;;;;;;5057981;28;20179;-73
2022/01/20 03:01:29;;;;;;;2.63;2.53;;;-3.20;84.10;;;;;;5065249;28;20617;-73
2022/01/20 03:03:55;;;;;;;3.60;1.67;;;-3.20;84.10;;;;;;5068325;28;20243;-73
2022/01/20 03:06:21;;;;;;;2.67;2.47;;;-3.30;84.00;;;;;;5065186;28;20196;-73
2022/01/20 03:08:47;;;;;;;3.67;3.37;;;-3.30;84.30;;;;;;5067057;28;20291;-74
2022/01/20 03:11:13;;;;;;;5.83;3.33;;;-3.30;84.30;;;;;;5088477;28;20189;-73
2022/01/20 03:13:38;;;;;;;8.37;4.63;;;-3.30;84.50;;;;;;5070246;28;20180;-73
2022/01/20 03:16:05;;;;;;;3.93;3.63;;;-3.30;84.40;;;;;;5076483;28;20629;-73
2022/01/20 03:18:30;;;;;;;3.03;2.63;;;-3.30;84.50;;;;;;5069297;28;20182;-73
2022/01/20 03:20:56;;;;;;;3.73;2.43;;;-3.30;84.60;;;;;;5062990;28;20686;-73
2022/01/20 03:23:22;;;;;;;3.43;3.23;;;-3.30;84.60;;;;;;5075942;28;20245;-73
2022/01/20 03:25:47;;;;;;;3.50;2.67;;;-3.30;84.60;;;;;;5067906;28;20194;-73
2022/01/20 03:28:14;;;;;;;4.80;2.87;;;-3.30;84.50;;;;;;5072605;28;20188;-73
2022/01/20 03:30:40;;;;;;;3.40;2.93;;;-3.30;84.60;;;;;;5063933;28;20210;-73
2022/01/20 03:33:05;;;;;;;3.53;3.23;;;-3.30;84.60;;;;;;5062170;28;20204;-73
2022/01/20 03:35:31;;;;;;;3.80;2.97;;;-3.30;84.50;;;;;;5058467;28;20225;-74
2022/01/20 03:37:58;;;;;;;2.23;2.13;;;-3.30;84.60;;;;;;5079881;28;20200;-73
2022/01/20 03:40:23;;;;;;;2.70;2.50;;;-3.30;84.60;;;;;;5067656;28;20179;-73
2022/01/20 03:42:50;;;;;;;2.50;2.40;;;-3.30;84.50;;;;;;5066260;28;20189;-72
2022/01/20 03:45:16;;;;;;;2.40;2.17;;;-3.30;84.50;;;;;;5068496;28;20225;-74
2022/01/20 03:47:42;;;;;;;2.63;2.53;;;-3.40;84.50;;;;;;5070734;28;20236;-74
2022/01/20 03:50:59;;;;;;;2.70;2.60;;;-3.40;84.60;;;;;;5064695;28;20217;-74
2022/01/20 03:52:54;;;;;;;1.80;1.50;;;-3.40;84.70;;;;;;5068149;28;20253;-74
2022/01/20 03:55:20;;;;;;;18.20;2.70;;;-3.40;84.90;;;;;;5073875;28;20213;-73
2022/01/20 03:57:46;;;;;;;3.37;2.37;;;-3.40;84.90;;;;;;5067382;28;20247;-74
2022/01/20 04:00:12;;;;;;;3.60;3.40;;;-3.50;85.10;;;;;;5066872;28;20182;-74
2022/01/20 04:02:38;;;;;;;3.37;1.83;;;-3.50;85.20;;;;;;5067404;28;20203;-74
2022/01/20 04:05:04;;;;;;;2.33;2.13;;;-3.50;85.00;;;;;;5068470;28;20640;-74
2022/01/20 04:07:29;;;;;;;2.80;2.60;;;-3.50;85.10;;;;;;5072716;28;20243;-74
2022/01/20 04:09:55;;;;;;;2.37;2.20;;;-3.50;85.00;;;;;;5067853;28;20230;-74
2022/01/20 04:12:21;;;;;;;1.27;1.17;;;-3.50;84.90;;;;;;5065257;28;20190;-74
2022/01/20 04:14:48;;;;;;;2.07;1.90;;;-3.60;84.70;;;;;;5081411;28;20219;-73
2022/01/20 04:17:19;;;;;;;2.00;2.00;;;-3.60;84.70;;;;;;5088635;28;20761;-74
2022/01/20 04:19:46;;;;;;;1.23;1.10;;;-3.60;84.50;;;;;;5069341;28;20237;-74
2022/01/20 04:22:12;;;;;;;3.43;2.07;;;-3.60;84.50;;;;;;5087083;28;20182;-74
2022/01/20 04:24:38;;;;;;;2.33;2.17;;;-3.60;84.60;;;;;;5066537;28;20208;-73
2022/01/20 04:27:04;;;;;;;2.00;1.53;;;-3.60;84.60;;;;;;5067201;28;20183;-73
2022/01/20 04:29:31;;;;;;;1.80;1.70;;;-3.60;84.60;;;;;;5072963;28;20187;-73
2022/01/20 04:31:57;;;;;;;1.93;1.83;;;-3.60;85.00;;;;;;5067650;28;20803;-73
2022/01/20 04:34:23;;;;;;;11.40;3.70;;;-3.60;84.90;;;;;;5088933;28;20205;-73
2022/01/20 04:36:51;;;;;;;2.23;2.03;;;-3.60;84.90;;;;;;5070434;28;20419;-72
2022/01/20 04:39:21;;;;;;;4.37;2.57;;;-3.60;85.10;;;;;;5067719;28;20175;-74
2022/01/20 04:41:48;;;;;;;6.13;1.77;;;-3.60;85.00;;;;;;5068792;28;20687;-74
2022/01/20 04:44:54;;;;;;;1.37;1.37;;;-3.60;85.00;;;;;;5064960;28;20749;-74
2022/01/20 04:57:48;;;;;;;2.23;2.10;;;-3.70;85.10;;;;;;5069284;28;20989;-74
2022/01/20 05:00:14;;;;;;;2.60;2.40;;;-3.70;85.30;;;;;;5068764;28;20187;-73
2022/01/20 05:02:40;;;;;;;1.97;1.37;;;-3.70;85.30;;;;;;5067843;28;20228;-73
2022/01/20 05:05:08;;;;;;;1.97;1.83;;;-3.70;85.40;;;;;;5069940;28;20677;-73
2022/01/20 05:07:34;;;;;;;1.87;1.77;;;-3.70;85.30;;;;;;5069323;28;20178;-73
2022/01/20 05:10:00;;;;;;;2.17;2.07;;;-3.70;85.30;;;;;;5068878;28;20182;-73
2022/01/20 05:12:40;;;;;;;2.43;2.23;;;-3.60;85.40;;;;;;5069464;28;20594;-74
2022/01/20 05:15:06;;;;;;;2.33;2.13;;;-3.60;85.30;;;;;;5065381;28;20244;-74
2022/01/20 05:17:31;;;;;;;4.07;2.50;;;-3.60;85.40;;;;;;5071002;28;20628;-74
2022/01/20 05:19:57;;;;;;;1.47;1.20;;;-3.60;85.40;;;;;;5071467;28;20210;-73
2022/01/20 05:22:23;;;;;;;2.03;1.93;;;-3.60;85.30;;;;;;5065859;28;20213;-73
2022/01/20 05:24:49;;;;;;;24.47;2.10;;;-3.60;85.10;;;;;;5069859;28;20671;-74
2022/01/20 05:27:15;;;;;;;3.90;1.83;;;-3.60;85.00;;;;;;5060271;28;20837;-72
2022/01/20 05:29:41;;;;;;;2.47;1.73;;;-3.60;84.70;;;;;;5075225;28;20214;-73
2022/01/20 05:32:07;;;;;;;6.70;2.10;;;-3.60;84.70;;;;;;5068035;28;20189;-74
2022/01/20 05:34:32;;;;;;;2.00;1.90;;;-3.60;84.70;;;;;;5069637;28;20210;-74
2022/01/20 05:36:58;;;;;;;3.13;2.83;;;-3.60;84.60;;;;;;5069792;28;20186;-75
2022/01/20 05:39:25;;;;;;;3.73;1.87;;;-3.60;84.50;;;;;;5071450;28;20177;-74
2022/01/20 05:41:50;;;;;;;1.77;1.67;;;-3.60;84.40;;;;;;5075387;28;20631;-74
2022/01/20 05:44:16;;;;;;;2.87;2.47;;;-3.60;84.50;;;;;;5074619;28;20192;-74
2022/01/20 05:46:47;;;;;;;2.57;1.87;;;-3.60;84.50;;;;;;5065634;28;20712;-75
2022/01/20 05:49:20;;;;;;;2.37;2.17;;;-3.60;84.50;;;;;;5057581;28;20217;-74
2022/01/20 05:51:52;;;;;;;2.03;1.67;;;-3.60;84.50;;;;;;5065881;28;20217;-72
2022/01/20 05:54:18;;;;;;;1.90;1.77;;;-3.60;84.50;;;;;;5065648;28;20289;-74
2022/01/20 05:56:44;;;;;;;6.13;2.83;;;-3.70;84.60;;;;;;5067102;28;20200;-76
2022/01/20 05:59:11;;;;;;;1.90;1.80;;;-3.70;84.80;;;;;;5074768;28;20197;-76
2022/01/20 06:01:38;;;;;;;2.03;2.03;;;-3.70;84.80;;;;;;5066079;28;20185;-75
2022/01/20 06:04:05;;;;;;;1.90;1.80;;;-3.70;84.80;;;;;;5076676;28;20180;-75
2022/01/20 06:06:32;;;;;;;1.93;1.83;;;-3.70;84.80;;;;;;5063787;28;20193;-75
2022/01/20 06:08:57;;;;;;;2.57;2.37;;;-3.70;84.70;;;;;;5077382;28;20174;-75
2022/01/20 06:11:23;;;;;;;1.47;1.47;;;-3.70;84.70;;;;;;5071329;28;20182;-76
2022/01/20 06:13:49;;;;;;;3.67;2.07;;;-3.70;84.80;;;;;;5071148;28;20185;-76
2022/01/20 06:16:15;;;;;;;2.13;2.00;;;-3.70;84.70;;;;;;5065180;28;20191;-75
2022/01/20 06:18:41;;;;;;;2.63;2.47;;;-3.70;84.70;;;;;;5063553;28;20234;-75
2022/01/20 06:21:07;;;;;;;2.27;2.17;;;-3.60;84.70;;;;;;5078716;28;20212;-75
2022/01/20 06:23:33;;;;;;;6.83;2.33;;;-3.60;84.60;;;;;;5070354;28;20695;-76
2022/01/20 06:26:04;;;;;;;2.53;2.23;;;-3.60;84.60;;;;;;5069453;28;20318;-75
2022/01/20 06:28:32;;;;;;;1.33;1.30;;;-3.60;84.60;;;;;;5069603;28;20654;-75
2022/01/20 06:30:58;;;;;;;4.73;2.23;;;-3.50;84.70;;;;;;5061874;28;20322;-75
2022/01/20 06:33:23;;;;;;;3.70;1.93;;;-3.50;84.70;;;;;;5067231;28;20268;-75
2022/01/20 06:35:49;;;;;;;4.70;1.53;;;-3.50;84.60;;;;;;5066045;28;20215;-76
2022/01/20 06:38:15;;;;;;;2.37;1.60;;;-3.50;84.60;;;;;;5060579;28;20187;-75
2022/01/20 06:40:41;;;;;;;2.73;2.57;;;-3.40;84.60;;;;;;5067353;28;20181;-75
2022/01/20 06:43:08;;;;;;;2.47;1.80;;;-3.40;84.50;;;;;;5062674;28;20190;-74
2022/01/20 06:45:34;;;;;;;3.17;2.53;;;-3.20;84.50;;;;;;5070392;28;20186;-74
2022/01/20 06:48:00;;;;;;;2.53;2.43;;;-3.10;84.20;;;;;;5066190;28;20781;-76
2022/01/20 06:50:26;;;;;;;1.80;1.70;;;-2.90;84.10;;;;;;5068102;28;20176;-73
2022/01/20 06:52:52;;;;;;;2.37;2.27;;;-2.70;84.20;;;;;;5060032;28;20209;-75
2022/01/20 06:55:19;;;;;;;1.87;1.77;;;-2.40;83.60;;;;;;5073155;28;20212;-76
2022/01/20 06:57:44;;;;;;;2.10;1.83;;;-1.90;83.80;;;;;;5070797;28;20674;-75
2022/01/20 07:00:14;;;;;;;2.20;2.07;;;-1.50;83.10;;;;;;5072011;28;20191;-75
2022/01/20 07:02:40;;;;;;;5.17;3.40;;;-1.00;81.80;;;;;;5066299;28;20205;-75
2022/01/20 07:05:06;;;;;;;5.50;2.83;;;-0.40;82.00;;;;;;5063483;28;20184;-76
2022/01/20 07:07:32;;;;;;;5.57;3.67;;;0.20;80.80;;;;;;5075546;28;20182;-71
2022/01/20 07:09:58;;;;;;;4.63;3.40;;;0.80;79.10;;;;;;5063684;28;20629;-75
2022/01/20 07:12:24;;;;;;;2.63;2.37;;;1.40;77.40;;;;;;5062671;28;20261;-77
2022/01/20 07:14:50;;;;;;;6.23;4.57;;;1.90;76.90;;;;;;5069551;28;20206;-75
2022/01/20 07:17:16;;;;;;;6.63;3.70;;;2.50;75.90;;;;;;5068606;28;20765;-75
2022/01/20 07:19:41;;;;;;;4.80;4.33;;;3.00;73.30;;;;;;5076756;28;20243;-76
2022/01/20 07:22:07;;;;;;;4.53;4.20;;;3.50;72.40;;;;;;5066040;28;20179;-75
2022/01/20 07:24:33;;;;;;;7.93;4.13;;;3.90;69.60;;;;;;5072953;28;20218;-75
2022/01/20 07:26:59;;;;;;;3.33;3.17;;;4.30;68.60;;;;;;5071944;28;20240;-75
2022/01/20 07:29:26;;;;;;;8.20;5.50;;;4.70;69.00;;;;;;5073965;28;20806;-75
2022/01/20 07:31:53;;;;;;;11.07;4.43;;;5.10;67.40;;;;;;5071577;28;20183;-75
2022/01/20 07:34:19;;;;;;;6.93;4.93;;;5.40;65.80;;;;;;5069329;28;20303;-76
2022/01/20 07:36:45;;;;;;;8.20;5.00;;;5.80;65.10;;;;;;5075979;28;20270;-77
2022/01/20 07:39:10;;;;;;;5.33;4.77;;;6.10;64.50;;;;;;5076010;28;20208;-78
2022/01/20 07:41:36;;;;;;;9.60;4.83;;;6.60;64.40;;;;;;5068294;28;20715;-75
2022/01/20 07:44:02;;;;;;;9.87;5.47;;;7.00;62.70;;;;;;5068087;28;20197;-77
2022/01/20 07:46:28;;;;;;;7.57;6.00;;;7.30;61.60;;;;;;5073352;28;20261;-76
2022/01/20 07:48:53;;;;;;;11.50;6.10;;;7.50;60.50;;;;;;5075913;28;21000;-75
2022/01/20 07:51:19;;;;;;;11.30;6.30;;;7.70;59.90;;;;;;5075116;28;20261;-75
2022/01/20 07:53:45;;;;;;;9.67;6.03;;;8.00;59.80;;;;;;5074708;28;20826;-76
2022/01/20 07:56:11;;;;;;;9.40;6.13;;;8.30;59.10;;;;;;5071747;28;20239;-75
2022/01/20 07:58:37;;;;;;;8.13;5.87;;;8.80;59.40;;;;;;5077135;28;20179;-76
2022/01/20 08:01:04;;;;;;;13.97;6.67;;;9.30;58.90;;;;;;5078385;28;20182;-75
2022/01/20 08:03:30;;;;;;;7.57;6.43;;;9.80;57.30;;;;;;5077845;28;20248;-74
2022/01/20 08:05:56;;;;;;;10.57;7.03;;;10.20;57.30;;;;;;5076851;28;20186;-75
2022/01/20 08:08:23;;;;;;;9.97;6.93;;;10.50;55.50;;;;;;5070574;28;20198;-75
2022/01/20 08:10:49;;;;;;;8.43;6.60;;;10.90;55.10;;;;;;5065715;28;20204;-71
2022/01/20 08:13:15;;;;;;;11.30;7.30;;;11.20;54.60;;;;;;5070486;28;20178;-77
2022/01/20 08:15:41;;;;;;;10.23;7.77;;;11.20;53.30;;;;;;5068194;28;20692;-76
2022/01/20 08:18:07;;;;;;;9.98;7.20;;;11.50;52.90;;;;;;5066250;28;20239;-75
2022/01/20 08:20:33;;;;;;;15.30;8.20;;;11.70;52.80;;;;;;5068800;28;20637;-77
2022/01/20 08:22:59;;;;;;;11.57;7.32;;;11.60;51.50;;;;;;5072326;28;20183;-76
2022/01/20 08:25:26;;;;;;;13.68;7.25;;;11.80;52.90;;;;;;5062752;28;20221;-76
2022/01/20 08:27:52;;;;;;;16.70;8.00;;;12.00;52.50;;;;;;5067015;28;20187;-76
2022/01/20 08:30:19;;;;;;;8.82;7.47;;;12.30;52.40;;;;;;5064977;28;20224;-75
2022/01/20 08:32:46;;;;;;;9.77;7.07;;;12.70;53.10;;;;;;5056441;28;20684;-75
2022/01/20 08:35:13;;;;;;;12.02;8.02;;;13.30;52.70;;;;;;5066642;28;20226;-74
2022/01/20 08:37:43;;;;;;;13.00;7.72;;;13.60;50.80;;;;;;5069152;28;20967;-71
2022/01/20 08:40:14;;;;;;;10.15;7.38;;;14.10;51.40;;;;;;5063666;28;20179;-75
2022/01/20 08:42:45;;;;;;;11.80;7.95;;;14.50;49.30;;;;;;5064007;28;20721;-74
2022/01/20 08:45:13;;;;;;;13.93;8.68;;;14.90;49.40;;;;;;5064182;28;20707;-75
2022/01/20 08:47:40;;;;;;;11.88;8.95;;;15.40;48.70;;;;;;5072680;28;20251;-74
2022/01/20 08:50:07;;;;;;;12.55;8.50;;;15.80;48.00;;;;;;5063551;28;20175;-75
2022/01/20 08:52:34;;;;;;;20.90;9.80;;;16.20;47.90;;;;;;5063573;28;20176;-75
2022/01/20 08:55:00;;;;;;;16.10;8.70;;;16.60;46.90;;;;;;5063113;28;20215;-75
2022/01/20 08:57:27;;;;;;;12.27;9.20;;;16.60;45.50;;;;;;5062661;28;20565;-76
2022/01/20 08:59:55;;;;;;;14.77;9.73;;;16.70;45.60;;;;;;5062438;28;20182;-75
2022/01/20 09:02:21;;;;;;;21.20;11.15;;;16.60;45.50;;;;;;5060415;28;20240;-75
2022/01/20 09:04:47;;;;;;;24.33;11.32;;;16.90;45.70;;;;;;5063772;28;20188;-75
2022/01/20 09:07:13;;;;;;;17.38;10.05;;;17.10;44.00;;;;;;5064607;28;20190;-75
2022/01/20 09:09:42;;;;;;;22.52;9.40;;;17.30;45.40;;;;;;5058288;28;20245;-74
2022/01/20 09:17:28;;;;;;;21.48;11.23;;;17.70;43.50;;;;;;5067889;28;20893;-75
2022/01/20 09:19:57;;;;;;;18.90;10.63;;;17.70;44.70;;;;;;5065746;28;21006;-75
2022/01/20 09:22:24;;;;;;;19.25;9.25;;;18.00;45.50;;;;;;5068834;28;20677;-75
2022/01/20 09:24:49;;;;;;;21.35;10.45;;;18.30;44.90;;;;;;5068749;28;20187;-75
2022/01/20 09:27:15;;;;;;;29.83;10.73;;;18.60;45.20;;;;;;5071322;28;20223;-75
2022/01/20 09:29:42;;;;;;;12.88;9.68;;;18.80;43.40;;;;;;5065773;28;20174;-75
2022/01/20 09:32:11;;;;;;;17.30;10.65;;;18.90;43.40;;;;;;5067948;28;20193;-74
2022/01/20 09:34:37;;;;;;;28.02;11.45;;;19.10;43.90;;;;;;5066849;28;20237;-74
2022/01/20 09:37:03;;;;;;;18.45;11.48;;;19.10;43.70;;;;;;5068853;28;20787;-76
2022/01/20 09:39:29;;;;;;;18.10;11.38;;;18.80;42.90;;;;;;5068589;28;20190;-74
2022/01/20 09:41:54;;;;;;;23.17;11.55;;;18.90;43.60;;;;;;5070198;28;20183;-74
2022/01/20 09:44:20;;;;;;;20.20;11.57;;;19.00;43.80;;;;;;5072568;28;20187;-74
2022/01/20 09:46:47;;;;;;;20.98;10.80;;;19.30;43.80;;;;;;5068138;28;20229;-75
2022/01/20 09:49:14;;;;;;;18.98;11.45;;;19.50;43.80;;;;;;5068142;28;20208;-75
2022/01/20 09:51:41;;;;;;;33.50;11.05;;;20.00;44.60;;;;;;5066980;28;20175;-75
2022/01/20 09:54:07;;;;;;;23.80;10.52;;;20.50;44.40;;;;;;5071622;28;21014;-75
2022/01/20 09:56:33;;;;;;;18.55;11.48;;;21.00;44.20;;;;;;5064479;28;20195;-75
2022/01/20 09:58:59;;;;;;;19.38;11.15;;;21.30;43.10;;;;;;5064719;28;20239;-75
2022/01/20 10:01:48;;;;;;;20.55;11.85;;;21.40;42.80;;;;;;5064402;28;20240;-75
2022/01/20 10:04:41;;;;;;;20.80;11.60;;;21.20;40.40;;;;;;5067992;28;20223;-74
2022/01/20 10:07:09;;;;;;;17.08;10.68;;;21.00;42.10;;;;;;5068142;28;20175;-74
2022/01/20 10:09:39;;;;;;;19.42;11.27;;;20.90;42.70;;;;;;5067958;28;20224;-74
2022/01/20 10:12:08;;;;;;;20.35;10.70;;;20.70;43.30;;;;;;5062819;28;20571;-74
2022/01/20 10:14:42;;;;;;;19.98;9.90;;;20.80;42.80;;;;;;5069585;28;20217;-73
2022/01/20 10:17:27;;;;;;;14.07;10.60;;;21.10;44.30;;;;;;5062836;28;20192;-74
2022/01/20 10:20:04;;;;;;;25.25;11.20;;;21.60;44.10;;;;;;5067873;28;20210;-75
2022/01/20 10:22:31;;;;;;;19.30;11.23;;;22.10;41.70;;;;;;5066783;28;20195;-75
2022/01/20 10:25:02;;;;;;;15.82;9.82;;;22.40;41.90;;;;;;5068116;28;20179;-75
2022/01/20 10:27:34;;;;;;;9.57;8.25;;;22.50;41.60;;;;;;5060895;28;20182;-74
2022/01/20 10:30:08;;;;;;;9.23;5.43;;;22.70;40.80;;;;;;5066744;28;20190;-75
2022/01/20 10:32:46;;;;;;;11.60;4.20;;;22.70;40.90;;;;;;5065364;28;20186;-75
2022/01/20 10:35:14;;;;;;;5.28;2.40;;;22.90;41.20;;;;;;5067094;28;20288;-75
2022/01/20 10:37:52;;;;;;;4.07;2.00;;;23.10;39.00;;;;;;5064847;28;20212;-75
2022/01/20 10:40:18;;;;;;;2.92;1.35;;;23.20;39.90;;;;;;5071224;28;20232;-75
2022/01/20 10:42:46;;;;;;;7.22;1.90;;;23.50;39.80;;;;;;5069515;28;20202;-75
2022/01/20 10:45:19;;;;;;;3.03;1.70;;;23.80;39.90;;;;;;5071106;28;20320;-75
2022/01/20 10:47:49;;;;;;;5.95;2.58;;;24.10;37.10;;;;;;5069166;28;20190;-76
2022/01/20 10:50:21;;;;;;;4.70;3.15;;;24.30;35.50;;;;;;5069960;28;20568;-75
2022/01/20 10:52:47;;;;;;;6.35;3.30;;;24.10;36.50;;;;;;5064037;28;20189;-76
2022/01/20 10:55:30;;;;;;;2.53;2.13;;;23.90;36.20;;;;;;5070132;28;20229;-74
2022/01/20 10:58:08;;;;;;;4.32;1.88;;;23.90;38.50;;;;;;5066809;28;20190;-74
2022/01/20 11:00:44;;;;;;;2.40;1.70;;;23.90;39.70;;;;;;5069006;28;20178;-74
2022/01/20 11:03:10;;;;;;;5.13;2.25;;;23.90;38.10;;;;;;5065269;28;20243;-74
2022/01/20 11:05:37;;;;;;;7.60;6.20;;;24.00;37.50;;;;;;5067428;28;20181;-75
2022/01/20 11:08:03;;;;;;;8.55;6.25;;;24.10;36.50;;;;;;5064118;28;20183;-74
2022/01/20 11:10:29;;;;;;;8.15;4.30;;;23.60;39.60;;;;;;5066402;28;20196;-74
2022/01/20 11:12:55;;;;;;;7.15;4.93;;;23.30;38.40;;;;;;5071097;28;20767;-70
2022/01/20 11:15:22;;;;;;;2.92;2.55;;;23.00;36.30;;;;;;5066870;28;20248;-75
2022/01/20 11:17:53;;;;;;;1.60;1.50;;;22.60;35.10;;;;;;5067748;28;20195;-75
2022/01/20 11:20:29;;;;;;;2.83;1.50;;;21.70;33.20;;;;;;5069889;28;20193;-76
2022/01/20 11:23:04;;;;;;;2.88;0.80;;;20.70;34.50;;;;;;5065891;28;20631;-72
2022/01/20 11:25:35;;;;;;;0.70;0.63;;;19.80;34.60;;;;;;5068315;28;20178;-73
2022/01/20 11:28:20;;;;;;;1.55;0.68;;;19.40;34.70;;;;;;5071074;28;20687;-74
2022/01/20 11:31:04;;;;;;;2.15;0.80;;;19.10;37.30;;;;;;5066869;28;20193;-75
2022/01/20 11:33:38;;;;;;;0.52;0.52;;;18.20;35.50;;;;;;5085768;28;20216;-74
2022/01/20 11:36:08;;;;;;;3.80;0.85;;;17.50;35.60;;;;;;5065515;28;20245;-75
2022/01/20 11:38:46;;;;;;;0.77;0.77;;;17.10;36.30;;;;;;5069516;28;20207;-73
2022/01/20 11:41:22;;;;;;;0.85;0.85;;;16.80;36.70;;;;;;5068817;28;20633;-75
2022/01/20 11:43:50;;;;;;;0.93;0.73;;;16.50;37.40;;;;;;5070644;28;20182;-73
2022/01/20 11:46:22;;;;;;;1.10;1.00;;;16.00;37.40;;;;;;5070810;28;20187;-74
2022/01/20 11:49:01;;;;;;;1.25;0.88;;;15.90;38.00;;;;;;5069085;28;20258;-74
2022/01/20 11:51:41;;;;;;;0.75;0.73;;;15.90;37.80;;;;;;5069853;28;20187;-74
2022/01/20 11:54:08;;;;;;;0.95;0.93;;;16.00;39.60;;;;;;5068607;28;20189;-74
2022/01/20 11:56:40;;;;;;;1.30;1.05;;;16.00;38.20;;;;;;5070985;28;20206;-74
2022/01/20 11:59:08;;;;;;;1.27;1.13;;;16.00;38.40;;;;;;5068266;28;20687;-74
2022/01/20 12:01:44;;;;;;;0.82;0.82;;;16.20;38.00;;;;;;5064837;28;20262;-74
2022/01/20 12:04:09;;;;;;;0.93;0.93;;;16.40;39.70;;;;;;5071982;28;20186;-73
2022/01/20 12:06:42;;;;;;;1.67;1.58;;;16.60;37.90;;;;;;5067613;28;20216;-75
2022/01/20 12:09:08;;;;;;;1.77;1.00;;;16.50;37.60;;;;;;5067538;28;20570;-74
2022/01/20 12:11:36;;;;;;;0.80;0.80;;;16.30;37.80;;;;;;5081324;28;20186;-74
2022/01/20 12:14:04;;;;;;;1.38;1.27;;;16.10;38.10;;;;;;5063227;28;20182;-75
2022/01/20 12:16:30;;;;;;;1.10;0.88;;;15.60;38.10;;;;;;5084360;28;20191;-76
2022/01/20 12:18:58;;;;;;;1.00;1.00;;;15.10;38.90;;;;;;5068783;28;20179;-73
2022/01/20 12:21:25;;;;;;;1.45;0.85;;;15.00;39.60;;;;;;5069285;28;20206;-74
2022/01/20 12:23:53;;;;;;;0.70;0.70;;;14.70;40.10;;;;;;5068667;28;20217;-73
2022/01/20 12:26:19;;;;;;;1.10;0.73;;;14.20;41.00;;;;;;5062438;28;20186;-76
2022/01/20 12:28:45;;;;;;;0.80;0.80;;;14.10;42.00;;;;;;5068841;28;20568;-74
2022/01/20 12:31:14;;;;;;;2.58;0.95;;;14.10;41.70;;;;;;5067954;28;20222;-75
2022/01/20 12:33:47;;;;;;;0.82;0.82;;;14.40;41.80;;;;;;5067421;28;20833;-75
2022/01/20 12:36:14;;;;;;;3.33;0.80;;;14.60;40.80;;;;;;5065923;28;20240;-75
2022/01/20 12:38:40;;;;;;;0.90;0.88;;;14.70;41.70;;;;;;5070250;28;20189;-75
2022/01/20 12:41:16;;;;;;;2.47;0.75;;;14.70;41.10;;;;;;5070938;28;20175;-75
2022/01/20 12:43:54;;;;;;;2.55;0.70;;;14.60;41.50;;;;;;5070634;28;20295;-74
2022/01/20 12:46:23;;;;;;;2.38;0.70;;;14.30;42.10;;;;;;5068628;28;20212;-74
2022/01/20 12:49:00;;;;;;;0.50;0.50;;;14.20;42.40;;;;;;5067959;28;20191;-75
2022/01/20 12:51:50;;;;;;;2.70;0.70;;;14.00;42.50;;;;;;5065467;28;20748;-73
2022/01/20 12:54:27;;;;;;;0.80;0.70;;;13.70;43.00;;;;;;5072867;28;20202;-78
2022/01/20 12:56:58;;;;;;;0.77;0.77;;;13.50;43.70;;;;;;5063081;28;20664;-74
2022/01/20 12:59:26;;;;;;;2.28;0.70;;;13.20;44.00;;;;;;5071495;28;20209;-74
2022/01/20 13:01:54;;;;;;;2.47;0.65;;;13.00;44.40;;;;;;5072436;28;20517;-74
2022/01/20 13:04:25;;;;;;;1.67;0.90;;;13.00;44.40;;;;;;5071261;28;20256;-74
2022/01/20 13:06:56;;;;;;;1.27;0.85;;;13.30;45.60;;;;;;5073427;28;20563;-73
2022/01/20 13:09:25;;;;;;;2.15;1.15;;;13.60;44.70;;;;;;5067343;28;20175;-72
2022/01/20 13:14:31;;;;;;;0.57;0.57;;;14.00;44.10;;;;;;5070989;28;20210;-73
2022/01/20 13:16:57;;;;;;;0.70;0.70;;;14.00;43.50;;;;;;5071089;28;20182;-72
2022/01/20 13:19:33;;;;;;;0.70;0.70;;;13.90;44.10;;;;;;5068206;28;20210;-76
2022/01/20 13:22:00;;;;;;;0.77;0.77;;;13.80;43.70;;;;;;5072570;28;20202;-75
2022/01/20 13:24:30;;;;;;;2.80;0.50;;;13.60;44.00;;;;;;5069517;28;20190;-73
2022/01/20 13:26:57;;;;;;;1.13;0.65;;;13.20;44.30;;;;;;5067855;28;20379;-74
2022/01/20 13:29:25;;;;;;;0.70;0.70;;;13.20;44.50;;;;;;5070002;28;20185;-74
2022/01/20 13:31:56;;;;;;;2.50;0.90;;;13.20;44.70;;;;;;5066701;28;20181;-74
2022/01/20 13:34:22;;;;;;;0.90;0.90;;;13.20;44.80;;;;;;5065225;28;20213;-74
2022/01/20 13:36:53;;;;;;;0.60;0.60;;;13.30;45.10;;;;;;5069939;28;20765;-74
2022/01/20 13:39:40;;;;;;;1.10;0.85;;;13.40;44.50;;;;;;5058695;28;20279;-74
2022/01/20 13:45:18;;;;;;;1.00;1.00;;;13.10;44.50;;;;;;5070961;28;20194;-75
2022/01/20 13:47:54;;;;;;;2.58;0.98;;;13.00;45.40;;;;;;5064364;28;20317;-76
2022/01/20 13:50:28;;;;;;;3.55;0.90;;;13.10;45.70;;;;;;5074186;28;20193;-74
2022/01/20 13:52:55;;;;;;;0.82;0.82;;;13.10;45.40;;;;;;5067568;28;20274;-76
2022/01/20 13:55:30;;;;;;;0.70;0.70;;;13.00;45.20;;;;;;5069033;28;20340;-76
2022/01/20 13:58:01;;;;;;;0.80;0.77;;;12.90;45.30;;;;;;5073114;28;20213;-76
2022/01/20 14:00:33;;;;;;;0.88;0.88;;;12.80;45.80;;;;;;5069014;28;20181;-75
2022/01/20 14:02:59;;;;;;;0.50;0.50;;;12.70;45.50;;;;;;5067759;28;20194;-75